createdAt,value
2023-03-19T00:00:40.135Z,3.33
2023-03-19T00:03:07.303Z,2.80
2023-03-19T00:05:34.623Z,2.90
2023-03-19T00:08:01.905Z,2.47
2023-03-19T00:10:28.976Z,2.40
2023-03-19T00:12:56.836Z,3.75
2023-03-19T00:15:24.004Z,2.50
2023-03-19T00:17:51.828Z,2.90
2023-03-19T00:20:20.492Z,2.35
2023-03-19T00:22:47.704Z,2.42
2023-03-19T00:25:15.258Z,2.60
2023-03-19T00:27:43.035Z,2.08
2023-03-19T00:30:11.488Z,2.60
2023-03-19T00:32:39.680Z,3.47
2023-03-19T00:35:08.488Z,2.53
2023-03-19T00:37:36.510Z,2.30
2023-03-19T00:40:12.861Z,1.80
2023-03-19T00:42:39.920Z,3.15
2023-03-19T00:45:07.706Z,2.13
2023-03-19T00:47:35.153Z,2.78
2023-03-19T00:50:03.021Z,2.13
2023-03-19T00:52:30.506Z,2.75
2023-03-19T00:54:57.545Z,3.33
2023-03-19T00:57:24.734Z,2.75
2023-03-19T00:59:51.936Z,2.28
2023-03-19T01:02:18.961Z,3.75
2023-03-19T01:04:49.294Z,2.20
2023-03-19T01:07:16.519Z,2.97
2023-03-19T01:09:43.698Z,2.42
2023-03-19T01:12:11.059Z,2.50
2023-03-19T01:14:38.093Z,3.38
2023-03-19T01:17:05.543Z,2.50
2023-03-19T01:19:33.109Z,2.40
2023-03-19T01:22:00.269Z,2.38
2023-03-19T01:24:32.082Z,2.08
2023-03-19T01:26:59.169Z,2.63
2023-03-19T01:29:34.083Z,2.10
2023-03-19T01:32:09.903Z,2.60
2023-03-19T01:35:09.810Z,2.42
2023-03-19T01:37:37.621Z,2.63
2023-03-19T01:40:06.140Z,2.08
2023-03-19T01:42:34.066Z,3.13
2023-03-19T01:45:36.377Z,1.00
2023-03-19T01:48:48.622Z,1.67
2023-03-19T01:51:23.496Z,1.90
2023-03-19T01:54:12.420Z,2.70
2023-03-19T01:57:10.894Z,2.35
2023-03-19T02:00:02.046Z,2.42
2023-03-19T02:02:47.701Z,1.52
2023-03-19T02:05:45.674Z,5.07
2023-03-19T02:08:16.773Z,2.50
2023-03-19T02:10:47.806Z,1.70
2023-03-19T02:13:15.917Z,1.50
2023-03-19T02:15:43.443Z,1.95
2023-03-19T02:18:10.972Z,1.00
2023-03-19T02:24:02.678Z,1.25
2023-03-19T02:26:52.536Z,1.08
2023-03-19T02:29:19.691Z,1.20
2023-03-19T02:31:47.443Z,1.60
2023-03-19T02:34:14.525Z,3.28
2023-03-19T02:36:48.468Z,2.25
2023-03-19T02:39:27.640Z,1.17
2023-03-19T02:41:56.585Z,1.20
2023-03-19T02:44:26.660Z,1.42
2023-03-19T02:46:53.895Z,1.65
2023-03-19T02:49:21.015Z,1.58
2023-03-19T02:51:49.453Z,1.25
2023-03-19T02:54:16.643Z,1.40
2023-03-19T02:56:43.837Z,1.20
2023-03-19T02:59:10.961Z,3.28
2023-03-19T03:01:38.260Z,1.58
2023-03-19T03:04:06.002Z,1.40
2023-03-19T03:06:33.149Z,1.08
2023-03-19T03:09:02.334Z,1.25
2023-03-19T03:11:29.505Z,1.30
2023-03-19T03:13:56.576Z,1.10
2023-03-19T03:16:24.359Z,0.88
2023-03-19T03:18:51.535Z,1.13
2023-03-19T03:21:21.548Z,1.67
2023-03-19T03:23:48.958Z,1.38
2023-03-19T03:26:15.998Z,1.75
2023-03-19T03:28:43.577Z,1.52
2023-03-19T03:31:10.684Z,1.05
2023-03-19T03:33:39.866Z,1.10
2023-03-19T03:36:07.328Z,0.90
2023-03-19T03:38:34.830Z,1.17
2023-03-19T03:41:01.812Z,0.93
2023-03-19T03:43:29.108Z,1.40
2023-03-19T03:45:56.160Z,1.10
2023-03-19T03:48:23.870Z,1.10
2023-03-19T03:50:51.790Z,1.23
2023-03-19T03:53:23.541Z,1.20
2023-03-19T03:55:51.354Z,1.40
2023-03-19T03:58:21.649Z,0.85
2023-03-19T04:00:48.682Z,0.98
2023-03-19T04:03:15.994Z,1.30
2023-03-19T04:05:44.798Z,0.98
2023-03-19T04:08:12.357Z,1.33
2023-03-19T04:10:42.518Z,0.80
2023-03-19T04:13:10.349Z,0.98
2023-03-19T04:15:38.776Z,0.80
2023-03-19T04:18:06.495Z,2.80
2023-03-19T04:20:33.714Z,2.35
2023-03-19T04:23:02.224Z,0.93
2023-03-19T04:25:30.014Z,2.50
2023-03-19T04:27:58.301Z,1.08
2023-03-19T04:30:27.898Z,0.80
2023-03-19T04:32:55.545Z,1.40
2023-03-19T04:35:23.183Z,1.00
2023-03-19T04:37:50.181Z,0.65
2023-03-19T04:40:19.492Z,1.23
2023-03-19T04:42:47.637Z,1.10
2023-03-19T04:45:26.509Z,3.85
2023-03-19T04:47:54.126Z,2.38
2023-03-19T04:50:21.307Z,1.00
2023-03-19T04:52:48.459Z,3.63
2023-03-19T04:55:16.079Z,4.05
2023-03-19T04:57:50.956Z,1.80
2023-03-19T05:00:20.691Z,1.13
2023-03-19T05:02:48.594Z,1.63
2023-03-19T05:05:16.157Z,0.93
2023-03-19T05:07:44.446Z,0.98
2023-03-19T05:10:12.265Z,1.63
2023-03-19T05:12:40.041Z,2.28
2023-03-19T05:15:08.463Z,0.90
2023-03-19T05:17:39.046Z,0.80
2023-03-19T05:20:28.644Z,0.77
2023-03-19T05:23:01.865Z,1.08
2023-03-19T05:25:54.962Z,1.40
2023-03-19T05:28:40.221Z,1.00
2023-03-19T05:31:07.322Z,0.88
2023-03-19T05:33:42.045Z,3.47
2023-03-19T05:36:09.791Z,3.45
2023-03-19T05:38:49.352Z,0.98
2023-03-19T05:41:23.939Z,1.42
2023-03-19T05:43:59.357Z,1.52
2023-03-19T05:46:55.987Z,0.80
2023-03-19T05:49:26.083Z,1.88
2023-03-19T05:51:53.149Z,4.82
2023-03-19T05:54:20.922Z,1.10
2023-03-19T05:56:57.498Z,1.77
2023-03-19T05:59:44.242Z,2.13
2023-03-19T06:02:44.811Z,2.05
2023-03-19T06:05:27.270Z,3.78
2023-03-19T06:07:58.506Z,1.98
2023-03-19T06:10:48.755Z,1.20
2023-03-19T06:13:16.068Z,5.28
2023-03-19T06:15:50.525Z,0.90
2023-03-19T06:18:36.752Z,3.47
2023-03-19T06:21:14.199Z,1.80
2023-03-19T06:23:41.363Z,2.25
2023-03-19T06:26:10.861Z,2.92
2023-03-19T06:28:47.399Z,5.07
2023-03-19T06:31:15.936Z,1.40
2023-03-19T06:34:02.279Z,0.90
2023-03-19T06:36:38.209Z,0.65
2023-03-19T06:39:05.684Z,2.40
2023-03-19T06:41:32.739Z,0.60
2023-03-19T06:44:11.519Z,1.00
2023-03-19T06:46:38.944Z,1.15
2023-03-19T06:49:07.187Z,0.55
2023-03-19T06:51:34.499Z,0.50
2023-03-19T06:54:01.650Z,1.00
2023-03-19T06:56:29.755Z,0.60
2023-03-19T06:58:56.749Z,0.85
2023-03-19T07:01:24.102Z,1.35
2023-03-19T07:03:51.490Z,0.63
2023-03-19T07:06:18.626Z,0.50
2023-03-19T07:08:46.654Z,0.70
2023-03-19T07:11:15.158Z,0.52
2023-03-19T07:13:42.528Z,1.05
2023-03-19T07:16:09.763Z,0.57
2023-03-19T07:18:36.751Z,0.55
2023-03-19T07:21:04.146Z,0.98
2023-03-19T07:23:31.137Z,0.70
2023-03-19T07:25:58.849Z,0.65
2023-03-19T07:28:26.084Z,0.50
2023-03-19T07:30:53.744Z,0.93
2023-03-19T07:33:22.079Z,1.00
2023-03-19T07:35:49.297Z,0.80
2023-03-19T07:38:16.832Z,0.90
2023-03-19T07:40:54.973Z,0.65
2023-03-19T07:43:26.345Z,0.63
2023-03-19T07:45:53.580Z,0.60
2023-03-19T07:48:21.096Z,1.13
2023-03-19T07:50:51.394Z,0.63
2023-03-19T07:53:18.745Z,1.08
2023-03-19T07:55:45.883Z,2.38
2023-03-19T07:58:13.405Z,0.52
2023-03-19T08:00:40.617Z,0.70
2023-03-19T08:03:07.692Z,0.80
2023-03-19T08:05:34.694Z,1.48
2023-03-19T08:08:01.954Z,0.73
2023-03-19T08:10:29.241Z,1.20
2023-03-19T08:12:56.788Z,0.80
2023-03-19T08:15:23.913Z,0.70
2023-03-19T08:18:03.604Z,1.13
2023-03-19T08:20:31.063Z,0.80
2023-03-19T08:22:58.417Z,0.95
2023-03-19T08:25:27.222Z,0.73
2023-03-19T08:27:54.550Z,0.80
2023-03-19T08:30:21.704Z,0.88
2023-03-19T08:32:49.543Z,0.68
2023-03-19T08:35:17.101Z,0.40
2023-03-19T08:37:44.155Z,0.73
2023-03-19T08:40:12.038Z,5.70
2023-03-19T08:42:45.002Z,18.42
2023-03-19T08:45:14.153Z,21.60
2023-03-19T08:47:42.375Z,3.60
2023-03-19T08:50:10.181Z,0.60
2023-03-19T08:52:37.935Z,0.60
2023-03-19T08:55:05.666Z,0.50
2023-03-19T08:57:36.181Z,27.42
2023-03-19T09:00:06.353Z,0.50
2023-03-19T09:02:34.215Z,2.83
2023-03-19T09:05:02.265Z,0.60
2023-03-19T09:07:33.976Z,0.50
2023-03-19T09:10:02.817Z,0.77
2023-03-19T09:12:30.078Z,0.50
2023-03-19T09:14:57.350Z,0.85
2023-03-19T09:17:24.678Z,0.70
2023-03-19T09:19:51.731Z,0.57
2023-03-19T09:22:18.714Z,0.75
2023-03-19T09:24:45.962Z,0.60
2023-03-19T09:27:13.173Z,0.73
2023-03-19T09:29:43.412Z,0.80
2023-03-19T09:32:10.589Z,1.10
2023-03-19T09:34:37.823Z,0.65
2023-03-19T09:37:04.948Z,0.60
2023-03-19T09:39:32.836Z,0.55
2023-03-19T09:42:15.532Z,0.77
2023-03-19T09:44:47.300Z,1.40
2023-03-19T09:47:26.418Z,1.02
2023-03-19T09:49:59.532Z,1.17
2023-03-19T09:52:49.789Z,0.80
2023-03-19T09:55:31.864Z,2.05
2023-03-19T09:58:01.048Z,0.70
2023-03-19T10:00:32.880Z,0.80
2023-03-19T10:03:30.202Z,1.10
2023-03-19T10:06:18.350Z,3.55
2023-03-19T10:09:12.149Z,0.40
2023-03-19T10:11:59.733Z,0.70
2023-03-19T10:14:47.367Z,0.90
2023-03-19T10:17:22.409Z,1.17
2023-03-19T10:19:57.558Z,1.00
2023-03-19T10:22:36.206Z,0.30
2023-03-19T10:25:06.834Z,0.70
2023-03-19T10:27:33.883Z,0.80
2023-03-19T10:30:01.005Z,0.50
2023-03-19T10:32:44.374Z,1.85
2023-03-19T10:35:25.057Z,0.80
2023-03-19T10:37:52.382Z,0.60
2023-03-19T10:40:52.554Z,3.47
2023-03-19T10:43:26.713Z,0.70
2023-03-19T10:45:54.607Z,4.70
2023-03-19T10:48:28.139Z,1.90
2023-03-19T10:51:06.288Z,1.58
2023-03-19T10:53:38.583Z,0.57
2023-03-19T10:56:19.994Z,0.55
2023-03-19T10:58:57.779Z,0.45
2023-03-19T11:01:39.377Z,0.90
2023-03-19T11:04:19.937Z,1.38
2023-03-19T11:06:52.226Z,0.40
2023-03-19T11:09:38.752Z,0.55
2023-03-19T11:12:34.113Z,0.30
2023-03-19T11:15:07.696Z,0.77
2023-03-19T11:17:49.690Z,0.73
2023-03-19T11:20:33.910Z,0.45
2023-03-19T11:23:07.798Z,0.75
2023-03-19T11:25:42.316Z,0.30
2023-03-19T11:28:14.535Z,0.60
2023-03-19T11:31:10.994Z,0.30
2023-03-19T11:34:11.925Z,0.40
2023-03-19T11:37:02.093Z,0.30
2023-03-19T11:39:30.864Z,0.90
2023-03-19T11:42:35.172Z,1.30
2023-03-19T11:45:26.198Z,0.40
2023-03-19T11:48:08.493Z,0.50
2023-03-19T11:50:51.424Z,0.40
2023-03-19T11:53:39.943Z,0.57
2023-03-19T11:56:30.048Z,0.65
2023-03-19T11:59:10.295Z,0.30
2023-03-19T12:01:58.725Z,0.50
2023-03-19T12:04:44.013Z,0.40
2023-03-19T12:10:26.269Z,0.57
2023-03-19T12:13:45.841Z,0.55
2023-03-19T12:16:21.599Z,0.40
2023-03-19T12:18:56.739Z,1.90
2023-03-19T12:21:44.949Z,0.82
2023-03-19T12:24:28.703Z,0.60
2023-03-19T12:27:27.621Z,1.00
2023-03-19T12:30:15.976Z,1.17
2023-03-19T12:32:54.316Z,11.18
2023-03-19T12:35:29.945Z,0.63
2023-03-19T12:38:05.707Z,0.40
2023-03-19T12:40:38.837Z,0.40
2023-03-19T12:43:30.707Z,0.40
2023-03-19T12:46:38.523Z,0.60
2023-03-19T12:49:15.692Z,0.55
2023-03-19T12:51:49.776Z,0.60
2023-03-19T12:54:42.079Z,0.47
2023-03-19T12:57:18.664Z,0.50
2023-03-19T12:59:45.770Z,0.50
2023-03-19T13:02:57.819Z,0.50
2023-03-19T13:05:53.198Z,0.40
2023-03-19T13:08:40.375Z,0.50
2023-03-19T13:11:26.795Z,0.57
2023-03-19T13:14:12.209Z,0.45
2023-03-19T13:16:46.533Z,0.40
2023-03-19T13:19:30.467Z,0.40
2023-03-19T13:22:03.305Z,0.45
2023-03-19T13:24:38.883Z,0.70
2023-03-19T13:27:11.128Z,0.45
2023-03-19T13:29:52.338Z,1.10
2023-03-19T13:32:36.081Z,0.40
2023-03-19T13:35:24.505Z,0.50
2023-03-19T13:37:59.480Z,1.13
2023-03-19T13:43:30.174Z,3.58
2023-03-19T13:46:12.550Z,0.98
2023-03-19T13:48:51.138Z,1.73
2023-03-19T13:51:21.935Z,0.43
2023-03-19T13:54:01.521Z,0.40
2023-03-19T13:56:30.603Z,0.70
2023-03-19T13:59:25.449Z,1.58
2023-03-19T14:01:52.880Z,0.77
2023-03-19T14:04:21.528Z,0.98
2023-03-19T14:06:56.254Z,1.00
2023-03-19T14:09:43.602Z,0.60
2023-03-19T14:12:20.399Z,1.35
2023-03-19T14:14:57.403Z,4.97
2023-03-19T14:17:51.668Z,7.20
2023-03-19T14:20:24.013Z,1.38
2023-03-19T14:22:58.220Z,0.83
2023-03-19T14:25:57.148Z,0.88
2023-03-19T14:28:52.838Z,0.60
2023-03-19T14:31:32.040Z,0.70
2023-03-19T14:34:11.556Z,1.40
2023-03-19T14:36:44.764Z,2.60
2023-03-19T14:39:24.607Z,2.47
2023-03-19T14:42:01.567Z,0.90
2023-03-19T14:45:18.463Z,0.88
2023-03-19T14:48:12.741Z,1.63
2023-03-19T14:51:14.064Z,1.90
2023-03-19T14:53:52.333Z,1.33
2023-03-19T14:56:25.712Z,1.00
2023-03-19T14:58:57.802Z,1.92
2023-03-19T15:01:29.746Z,3.83
2023-03-19T15:04:00.968Z,2.40
2023-03-19T15:06:33.971Z,4.78
2023-03-19T15:09:02.768Z,2.20
2023-03-19T15:11:48.349Z,3.08
2023-03-19T15:14:24.366Z,3.10
2023-03-19T15:17:22.388Z,1.83
2023-03-19T15:19:50.258Z,0.98
2023-03-19T15:22:21.683Z,1.20
2023-03-19T15:24:48.979Z,1.40
2023-03-19T15:27:27.400Z,1.45
2023-03-19T15:30:02.528Z,1.10
2023-03-19T15:33:09.021Z,1.50
2023-03-19T15:35:33.303Z,1.13
2023-03-19T15:38:12.518Z,2.20
2023-03-19T15:40:41.677Z,1.35
2023-03-19T15:43:13.119Z,2.03
2023-03-19T15:45:46.429Z,2.05
2023-03-19T15:48:16.827Z,1.65
2023-03-19T15:50:46.911Z,3.95
2023-03-19T15:53:19.560Z,2.20
2023-03-19T15:55:50.278Z,3.90
2023-03-19T15:58:22.490Z,1.88
2023-03-19T16:00:54.887Z,3.63
2023-03-19T16:03:38.490Z,1.83
2023-03-19T16:06:08.365Z,1.75
2023-03-19T16:08:35.642Z,2.58
2023-03-19T16:11:28.545Z,3.75
2023-03-19T16:14:02.054Z,14.05
2023-03-19T16:16:32.964Z,3.03
2023-03-19T16:18:59.973Z,1.75
2023-03-19T16:21:41.627Z,2.80
2023-03-19T16:24:08.593Z,5.05
2023-03-19T16:26:44.651Z,4.57
2023-03-19T16:29:25.697Z,1.70
2023-03-19T16:31:58.765Z,4.40
2023-03-19T16:34:36.274Z,3.90
2023-03-19T16:37:26.322Z,2.65
2023-03-19T16:39:59.064Z,1.38
2023-03-19T16:42:36.977Z,3.30
2023-03-19T16:45:18.923Z,2.42
2023-03-19T16:47:51.458Z,1.65
2023-03-19T16:50:21.578Z,3.15
2023-03-19T16:52:49.731Z,2.25
2023-03-19T16:55:28.863Z,2.33
2023-03-19T16:58:16.506Z,1.95
2023-03-19T17:00:44.963Z,1.58
2023-03-19T17:03:17.579Z,2.33
2023-03-19T17:05:46.800Z,1.58
2023-03-19T17:08:14.462Z,1.98
2023-03-19T17:10:46.017Z,8.48
2023-03-19T17:13:23.462Z,16.65
2023-03-19T17:15:51.623Z,5.95
2023-03-19T17:18:21.202Z,10.57
2023-03-19T17:20:52.745Z,5.45
2023-03-19T17:23:20.147Z,4.47
2023-03-19T17:25:47.517Z,2.40
2023-03-19T17:28:14.630Z,2.05
2023-03-19T17:30:42.034Z,1.83
2023-03-19T17:33:23.250Z,2.33
2023-03-19T17:35:51.489Z,2.90
2023-03-19T17:38:19.465Z,3.58
2023-03-19T17:40:47.818Z,2.38
2023-03-19T17:43:15.619Z,2.25
2023-03-19T17:45:46.807Z,2.22
2023-03-19T17:48:24.158Z,2.38
2023-03-19T17:50:51.820Z,2.15
2023-03-19T17:53:19.112Z,1.80
2023-03-19T17:55:47.039Z,2.40
2023-03-19T17:58:20.191Z,2.80
2023-03-19T18:00:49.677Z,2.45
2023-03-19T18:03:19.847Z,2.10
2023-03-19T18:05:47.174Z,2.42
2023-03-19T18:08:16.946Z,2.05
2023-03-19T18:10:44.131Z,2.97
2023-03-19T18:13:12.130Z,2.55
2023-03-19T18:15:41.690Z,1.85
2023-03-19T18:18:15.938Z,1.85
2023-03-19T18:20:43.245Z,1.83
2023-03-19T18:23:11.983Z,1.38
2023-03-19T18:25:39.560Z,1.83
2023-03-19T18:28:06.811Z,1.55
2023-03-19T18:30:36.178Z,1.50
2023-03-19T18:33:07.515Z,23.95
2023-03-19T18:35:39.150Z,32.65
2023-03-19T18:38:14.401Z,53.22
2023-03-19T18:40:41.613Z,44.58
2023-03-19T18:43:10.766Z,33.03
2023-03-19T18:45:40.050Z,33.72
2023-03-19T18:48:16.842Z,14.05
2023-03-19T18:50:44.144Z,13.02
2023-03-19T18:53:11.607Z,9.73
2023-03-19T18:55:38.960Z,9.82
2023-03-19T18:58:06.679Z,6.80
2023-03-19T19:00:36.186Z,9.07
2023-03-19T19:03:05.433Z,5.07
2023-03-19T19:05:33.684Z,3.88
2023-03-19T19:08:02.833Z,4.38
2023-03-19T19:10:36.927Z,2.20
2023-03-19T19:13:04.333Z,3.33
2023-03-19T19:15:36.645Z,3.00
2023-03-19T19:18:15.217Z,3.08
2023-03-19T19:20:42.468Z,2.00
2023-03-19T19:23:10.739Z,2.08
2023-03-19T19:25:38.774Z,1.73
2023-03-19T19:28:21.294Z,1.73
2023-03-19T19:30:49.788Z,1.73
2023-03-19T19:33:36.828Z,1.48
2023-03-19T19:36:04.660Z,1.92
2023-03-19T19:38:31.863Z,1.55
2023-03-19T19:41:00.657Z,1.88
2023-03-19T19:43:31.226Z,2.60
2023-03-19T19:45:59.136Z,1.40
2023-03-19T19:48:28.809Z,1.83
2023-03-19T19:51:04.277Z,1.95
2023-03-19T19:53:31.480Z,1.30
2023-03-19T19:55:58.697Z,1.52
2023-03-19T19:58:31.166Z,1.38
2023-03-19T20:01:03.740Z,1.30
2023-03-19T20:03:34.137Z,1.50
2023-03-19T20:06:02.108Z,1.02
2023-03-19T20:08:30.095Z,1.98
2023-03-19T20:10:57.624Z,1.40
2023-03-19T20:13:38.044Z,2.08
2023-03-19T20:16:06.085Z,1.48
2023-03-19T20:18:35.946Z,1.25
2023-03-19T20:21:04.398Z,1.50
2023-03-19T20:23:32.225Z,7.95
2023-03-19T20:25:59.883Z,3.80
2023-03-19T20:28:34.361Z,2.13
2023-03-19T20:31:03.979Z,1.55
2023-03-19T20:33:31.744Z,18.23
2023-03-19T20:35:59.088Z,37.35
2023-03-19T20:38:27.633Z,26.48
2023-03-19T20:40:57.536Z,9.48
2023-03-19T20:43:35.983Z,6.10
2023-03-19T20:46:06.037Z,7.38
2023-03-19T20:48:34.423Z,5.72
2023-03-19T20:51:02.580Z,7.43
2023-03-19T20:53:30.034Z,7.25
2023-03-19T20:55:57.671Z,6.03
2023-03-19T20:58:35.027Z,4.97
2023-03-19T21:01:03.310Z,5.05
2023-03-19T21:03:31.941Z,6.38
2023-03-19T21:06:02.263Z,4.38
2023-03-19T21:08:37.893Z,2.33
2023-03-19T21:11:05.734Z,2.42
2023-03-19T21:13:32.820Z,1.67
2023-03-19T21:16:00.296Z,1.90
2023-03-19T21:18:27.572Z,1.90
2023-03-19T21:20:57.207Z,1.90
2023-03-19T21:23:37.393Z,1.85
2023-03-19T21:26:15.417Z,3.67
2023-03-19T21:28:43.721Z,1.23
2023-03-19T21:31:20.768Z,1.17
2023-03-19T21:33:49.840Z,1.30
2023-03-19T21:36:17.632Z,2.03
2023-03-19T21:38:45.062Z,1.30
2023-03-19T21:41:26.552Z,1.10
2023-03-19T21:43:57.531Z,0.98
2023-03-19T21:46:27.834Z,1.27
2023-03-19T21:48:56.470Z,2.05
2023-03-19T21:51:25.376Z,1.20
2023-03-19T21:53:52.706Z,1.20
2023-03-19T21:56:33.523Z,1.08
2023-03-19T21:59:04.157Z,1.10
2023-03-19T22:01:31.375Z,2.10
2023-03-19T22:03:58.883Z,1.15
2023-03-19T22:06:26.099Z,0.77
2023-03-19T22:08:56.385Z,1.60
2023-03-19T22:11:30.571Z,1.02
2023-03-19T22:14:34.909Z,1.17
2023-03-19T22:17:02.102Z,1.67
2023-03-19T22:19:29.378Z,1.52
2023-03-19T22:21:56.510Z,1.30
2023-03-19T22:24:23.680Z,0.95
2023-03-19T22:26:56.686Z,1.27
2023-03-19T22:29:25.784Z,0.80
2023-03-19T22:31:54.603Z,1.13
2023-03-19T22:34:25.028Z,1.70
2023-03-19T22:36:52.172Z,0.85
2023-03-19T22:39:19.407Z,1.40
2023-03-19T22:41:48.505Z,0.93
2023-03-19T22:44:31.353Z,0.73
2023-03-19T22:47:00.971Z,0.75
2023-03-19T22:49:30.120Z,0.93
2023-03-19T22:51:58.423Z,0.77
2023-03-19T22:54:26.142Z,0.70
2023-03-19T22:56:53.344Z,0.98
2023-03-19T22:59:20.572Z,1.23
2023-03-19T23:01:48.163Z,1.95
2023-03-19T23:04:20.954Z,1.15
2023-03-19T23:06:48.757Z,1.00
2023-03-19T23:09:19.234Z,0.75
2023-03-19T23:11:48.392Z,0.77
2023-03-19T23:14:28.517Z,1.05
2023-03-19T23:17:02.133Z,0.90
2023-03-19T23:19:35.077Z,1.10
2023-03-19T23:22:04.948Z,1.42
2023-03-19T23:24:32.491Z,1.40
2023-03-19T23:27:01.107Z,1.80
2023-03-19T23:29:39.932Z,0.95
2023-03-19T23:32:08.323Z,1.00
2023-03-19T23:34:45.793Z,2.85
2023-03-19T23:37:22.671Z,1.27
2023-03-19T23:39:50.019Z,2.30
2023-03-19T23:42:27.780Z,2.08
2023-03-19T23:44:58.153Z,1.10
2023-03-19T23:47:25.597Z,1.45
2023-03-19T23:49:52.765Z,2.08
2023-03-19T23:52:19.671Z,1.42
2023-03-19T23:54:46.840Z,1.10
2023-03-19T23:57:15.879Z,1.30
2023-03-19T23:59:45.472Z,1.08
